sensor_id;sensor_type;location;lat;lon;timestamp;P1;durP1;ratioP1;P2;durP2;ratioP2
46767;SDS011;69007;48.978;18.066;2024-01-07T00:02:12;6.90;;;3.60;;
46767;SDS011;69007;48.978;18.066;2024-01-07T00:04:37;7.47;;;4.05;;
46767;SDS011;69007;48.978;18.066;2024-01-07T00:07:05;10.48;;;5.82;;
46767;SDS011;69007;48.978;18.066;2024-01-07T00:09:30;10.85;;;5.20;;
46767;SDS011;69007;48.978;18.066;2024-01-07T00:11:56;4.70;;;3.53;;
46767;SDS011;69007;48.978;18.066;2024-01-07T00:14:21;6.40;;;4.07;;
46767;SDS011;69007;48.978;18.066;2024-01-07T00:16:46;6.53;;;3.67;;
46767;SDS011;69007;48.978;18.066;2024-01-07T00:19:12;6.47;;;3.33;;
46767;SDS011;69007;48.978;18.066;2024-01-07T00:21:37;7.57;;;4.13;;
46767;SDS011;69007;48.978;18.066;2024-01-07T00:24:03;7.45;;;3.97;;
46767;SDS011;69007;48.978;18.066;2024-01-07T00:26:28;4.55;;;2.85;;
46767;SDS011;69007;48.978;18.066;2024-01-07T00:28:54;4.70;;;3.10;;
46767;SDS011;69007;48.978;18.066;2024-01-07T00:31:19;5.53;;;3.40;;
46767;SDS011;69007;48.978;18.066;2024-01-07T00:33:45;7.30;;;4.35;;
46767;SDS011;69007;48.978;18.066;2024-01-07T00:36:10;5.45;;;3.13;;
46767;SDS011;69007;48.978;18.066;2024-01-07T00:38:35;6.28;;;2.83;;
46767;SDS011;69007;48.978;18.066;2024-01-07T00:41:01;9.55;;;4.20;;
46767;SDS011;69007;48.978;18.066;2024-01-07T00:43:26;6.70;;;3.70;;
46767;SDS011;69007;48.978;18.066;2024-01-07T00:45:52;6.45;;;3.60;;
46767;SDS011;69007;48.978;18.066;2024-01-07T00:48:17;5.57;;;3.00;;
46767;SDS011;69007;48.978;18.066;2024-01-07T00:50:42;6.43;;;3.28;;
46767;SDS011;69007;48.978;18.066;2024-01-07T00:53:08;8.65;;;4.32;;
46767;SDS011;69007;48.978;18.066;2024-01-07T00:55:33;4.38;;;3.08;;
46767;SDS011;69007;48.978;18.066;2024-01-07T00:58:00;7.75;;;3.80;;
46767;SDS011;69007;48.978;18.066;2024-01-07T01:00:26;5.57;;;3.60;;
46767;SDS011;69007;48.978;18.066;2024-01-07T01:02:52;6.97;;;3.00;;
46767;SDS011;69007;48.978;18.066;2024-01-07T01:05:18;7.97;;;4.70;;
46767;SDS011;69007;48.978;18.066;2024-01-07T01:07:43;7.70;;;3.63;;
46767;SDS011;69007;48.978;18.066;2024-01-07T01:10:09;7.85;;;4.38;;
46767;SDS011;69007;48.978;18.066;2024-01-07T01:12:34;5.13;;;3.20;;
46767;SDS011;69007;48.978;18.066;2024-01-07T01:15:00;5.30;;;3.00;;
46767;SDS011;69007;48.978;18.066;2024-01-07T01:17:25;6.90;;;3.40;;
46767;SDS011;69007;48.978;18.066;2024-01-07T01:19:51;7.28;;;3.53;;
46767;SDS011;69007;48.978;18.066;2024-01-07T01:22:16;4.88;;;3.05;;
46767;SDS011;69007;48.978;18.066;2024-01-07T01:24:41;4.22;;;2.47;;
46767;SDS011;69007;48.978;18.066;2024-01-07T01:27:09;4.13;;;3.30;;
46767;SDS011;69007;48.978;18.066;2024-01-07T01:29:35;7.85;;;3.33;;
46767;SDS011;69007;48.978;18.066;2024-01-07T01:32:01;4.13;;;2.78;;
46767;SDS011;69007;48.978;18.066;2024-01-07T01:34:26;3.97;;;2.72;;
46767;SDS011;69007;48.978;18.066;2024-01-07T01:36:52;4.95;;;3.10;;
46767;SDS011;69007;48.978;18.066;2024-01-07T01:39:18;7.40;;;4.45;;
46767;SDS011;69007;48.978;18.066;2024-01-07T01:41:43;6.63;;;3.55;;
46767;SDS011;69007;48.978;18.066;2024-01-07T01:44:10;8.45;;;2.72;;
46767;SDS011;69007;48.978;18.066;2024-01-07T01:46:36;3.55;;;2.55;;
46767;SDS011;69007;48.978;18.066;2024-01-07T01:49:02;4.20;;;2.55;;
46767;SDS011;69007;48.978;18.066;2024-01-07T01:51:28;7.95;;;2.78;;
46767;SDS011;69007;48.978;18.066;2024-01-07T01:53:53;4.28;;;2.90;;
46767;SDS011;69007;48.978;18.066;2024-01-07T01:56:19;5.13;;;2.75;;
46767;SDS011;69007;48.978;18.066;2024-01-07T01:58:48;6.82;;;2.83;;
46767;SDS011;69007;48.978;18.066;2024-01-07T02:01:14;4.72;;;2.72;;
46767;SDS011;69007;48.978;18.066;2024-01-07T02:03:39;3.63;;;2.40;;
46767;SDS011;69007;48.978;18.066;2024-01-07T02:06:04;3.45;;;2.50;;
46767;SDS011;69007;48.978;18.066;2024-01-07T02:08:30;4.00;;;2.45;;
46767;SDS011;69007;48.978;18.066;2024-01-07T02:10:56;3.70;;;2.65;;
46767;SDS011;69007;48.978;18.066;2024-01-07T02:13:22;3.20;;;2.28;;
46767;SDS011;69007;48.978;18.066;2024-01-07T02:15:47;4.70;;;2.10;;
46767;SDS011;69007;48.978;18.066;2024-01-07T02:18:12;2.38;;;2.00;;
46767;SDS011;69007;48.978;18.066;2024-01-07T02:20:38;4.07;;;2.58;;
46767;SDS011;69007;48.978;18.066;2024-01-07T02:23:03;7.20;;;2.22;;
46767;SDS011;69007;48.978;18.066;2024-01-07T02:25:29;3.38;;;2.20;;
46767;SDS011;69007;48.978;18.066;2024-01-07T02:28:00;3.92;;;2.25;;
46767;SDS011;69007;48.978;18.066;2024-01-07T02:30:25;5.13;;;2.30;;
46767;SDS011;69007;48.978;18.066;2024-01-07T02:32:52;5.47;;;2.45;;
46767;SDS011;69007;48.978;18.066;2024-01-07T02:35:17;5.63;;;2.80;;
46767;SDS011;69007;48.978;18.066;2024-01-07T02:37:43;3.65;;;2.20;;
46767;SDS011;69007;48.978;18.066;2024-01-07T02:40:08;3.17;;;2.08;;
46767;SDS011;69007;48.978;18.066;2024-01-07T02:42:34;4.32;;;2.28;;
46767;SDS011;69007;48.978;18.066;2024-01-07T02:44:59;4.25;;;2.20;;
46767;SDS011;69007;48.978;18.066;2024-01-07T02:47:25;3.28;;;2.38;;
46767;SDS011;69007;48.978;18.066;2024-01-07T02:49:51;5.82;;;2.47;;
46767;SDS011;69007;48.978;18.066;2024-01-07T02:52:16;4.55;;;2.03;;
46767;SDS011;69007;48.978;18.066;2024-01-07T02:54:41;4.78;;;2.10;;
46767;SDS011;69007;48.978;18.066;2024-01-07T02:57:07;2.42;;;1.50;;
46767;SDS011;69007;48.978;18.066;2024-01-07T02:59:32;4.57;;;2.17;;
46767;SDS011;69007;48.978;18.066;2024-01-07T03:01:58;3.53;;;2.22;;
46767;SDS011;69007;48.978;18.066;2024-01-07T03:04:23;3.65;;;1.90;;
46767;SDS011;69007;48.978;18.066;2024-01-07T03:06:49;3.40;;;2.03;;
46767;SDS011;69007;48.978;18.066;2024-01-07T03:09:14;2.25;;;1.65;;
46767;SDS011;69007;48.978;18.066;2024-01-07T03:11:40;3.05;;;1.85;;
46767;SDS011;69007;48.978;18.066;2024-01-07T03:14:09;3.85;;;2.17;;
46767;SDS011;69007;48.978;18.066;2024-01-07T03:16:35;8.48;;;1.65;;
46767;SDS011;69007;48.978;18.066;2024-01-07T03:19:00;2.60;;;1.60;;
46767;SDS011;69007;48.978;18.066;2024-01-07T03:21:27;3.03;;;1.83;;
46767;SDS011;69007;48.978;18.066;2024-01-07T03:23:52;2.28;;;1.67;;
46767;SDS011;69007;48.978;18.066;2024-01-07T03:26:18;2.20;;;1.70;;
46767;SDS011;69007;48.978;18.066;2024-01-07T03:28:44;3.85;;;1.88;;
46767;SDS011;69007;48.978;18.066;2024-01-07T03:31:11;1.60;;;1.50;;
46767;SDS011;69007;48.978;18.066;2024-01-07T03:33:38;3.40;;;1.60;;
46767;SDS011;69007;48.978;18.066;2024-01-07T03:36:07;2.17;;;1.70;;
46767;SDS011;69007;48.978;18.066;2024-01-07T03:38:37;1.90;;;1.50;;
46767;SDS011;69007;48.978;18.066;2024-01-07T03:41:03;3.20;;;1.95;;
46767;SDS011;69007;48.978;18.066;2024-01-07T03:43:29;3.30;;;2.28;;
46767;SDS011;69007;48.978;18.066;2024-01-07T03:45:54;2.60;;;1.85;;
46767;SDS011;69007;48.978;18.066;2024-01-07T03:48:20;5.93;;;1.80;;
46767;SDS011;69007;48.978;18.066;2024-01-07T03:50:45;4.40;;;1.40;;
46767;SDS011;69007;48.978;18.066;2024-01-07T03:53:11;3.35;;;1.90;;
46767;SDS011;69007;48.978;18.066;2024-01-07T03:55:36;3.15;;;2.00;;
46767;SDS011;69007;48.978;18.066;2024-01-07T03:58:02;2.97;;;1.92;;
46767;SDS011;69007;48.978;18.066;2024-01-07T04:00:28;2.67;;;1.70;;
46767;SDS011;69007;48.978;18.066;2024-01-07T04:02:53;3.38;;;2.00;;
46767;SDS011;69007;48.978;18.066;2024-01-07T04:05:19;2.35;;;1.52;;
46767;SDS011;69007;48.978;18.066;2024-01-07T04:07:44;2.78;;;1.90;;
46767;SDS011;69007;48.978;18.066;2024-01-07T04:10:09;2.33;;;1.52;;
46767;SDS011;69007;48.978;18.066;2024-01-07T04:12:36;2.55;;;1.67;;
46767;SDS011;69007;48.978;18.066;2024-01-07T04:15:01;3.08;;;2.10;;
46767;SDS011;69007;48.978;18.066;2024-01-07T04:17:26;2.38;;;1.75;;
46767;SDS011;69007;48.978;18.066;2024-01-07T04:19:52;2.50;;;1.80;;
46767;SDS011;69007;48.978;18.066;2024-01-07T04:22:17;2.13;;;1.45;;
46767;SDS011;69007;48.978;18.066;2024-01-07T04:24:42;2.35;;;1.75;;
46767;SDS011;69007;48.978;18.066;2024-01-07T04:27:08;1.83;;;1.50;;
46767;SDS011;69007;48.978;18.066;2024-01-07T04:29:33;2.13;;;1.50;;
46767;SDS011;69007;48.978;18.066;2024-01-07T04:31:59;2.53;;;1.63;;
46767;SDS011;69007;48.978;18.066;2024-01-07T04:34:24;4.78;;;1.98;;
46767;SDS011;69007;48.978;18.066;2024-01-07T04:36:50;3.50;;;1.95;;
46767;SDS011;69007;48.978;18.066;2024-01-07T04:39:16;2.30;;;1.70;;
46767;SDS011;69007;48.978;18.066;2024-01-07T04:41:41;2.80;;;2.30;;
46767;SDS011;69007;48.978;18.066;2024-01-07T04:44:06;3.88;;;2.05;;
46767;SDS011;69007;48.978;18.066;2024-01-07T04:46:37;3.05;;;1.98;;
46767;SDS011;69007;48.978;18.066;2024-01-07T04:49:03;3.15;;;2.20;;
46767;SDS011;69007;48.978;18.066;2024-01-07T04:51:29;4.05;;;2.00;;
46767;SDS011;69007;48.978;18.066;2024-01-07T04:53:55;7.07;;;1.98;;
46767;SDS011;69007;48.978;18.066;2024-01-07T04:56:20;3.50;;;2.38;;
46767;SDS011;69007;48.978;18.066;2024-01-07T04:58:45;2.75;;;2.20;;
46767;SDS011;69007;48.978;18.066;2024-01-07T05:01:11;3.65;;;1.90;;
46767;SDS011;69007;48.978;18.066;2024-01-07T05:03:36;3.72;;;2.30;;
46767;SDS011;69007;48.978;18.066;2024-01-07T05:06:03;2.80;;;2.15;;
46767;SDS011;69007;48.978;18.066;2024-01-07T05:08:29;2.92;;;1.88;;
46767;SDS011;69007;48.978;18.066;2024-01-07T05:10:54;2.95;;;2.13;;
46767;SDS011;69007;48.978;18.066;2024-01-07T05:13:19;3.13;;;2.50;;
46767;SDS011;69007;48.978;18.066;2024-01-07T05:15:45;4.68;;;2.90;;
46767;SDS011;69007;48.978;18.066;2024-01-07T05:18:11;2.75;;;2.15;;
46767;SDS011;69007;48.978;18.066;2024-01-07T05:20:37;2.95;;;2.17;;
46767;SDS011;69007;48.978;18.066;2024-01-07T05:23:03;4.00;;;2.10;;
46767;SDS011;69007;48.978;18.066;2024-01-07T05:25:28;3.33;;;2.00;;
46767;SDS011;69007;48.978;18.066;2024-01-07T05:27:54;2.70;;;2.13;;
46767;SDS011;69007;48.978;18.066;2024-01-07T05:30:19;2.47;;;1.70;;
46767;SDS011;69007;48.978;18.066;2024-01-07T05:32:45;4.95;;;2.40;;
46767;SDS011;69007;48.978;18.066;2024-01-07T05:35:10;3.20;;;2.10;;
46767;SDS011;69007;48.978;18.066;2024-01-07T05:37:36;2.45;;;2.00;;
46767;SDS011;69007;48.978;18.066;2024-01-07T05:40:01;4.22;;;2.35;;
46767;SDS011;69007;48.978;18.066;2024-01-07T05:42:26;2.55;;;2.03;;
46767;SDS011;69007;48.978;18.066;2024-01-07T05:44:52;4.78;;;2.28;;
46767;SDS011;69007;48.978;18.066;2024-01-07T05:47:17;2.67;;;1.90;;
46767;SDS011;69007;48.978;18.066;2024-01-07T05:49:43;3.80;;;2.22;;
46767;SDS011;69007;48.978;18.066;2024-01-07T05:52:08;2.15;;;1.95;;
46767;SDS011;69007;48.978;18.066;2024-01-07T05:54:34;2.67;;;2.08;;
46767;SDS011;69007;48.978;18.066;2024-01-07T05:56:59;2.63;;;2.10;;
46767;SDS011;69007;48.978;18.066;2024-01-07T05:59:24;2.78;;;1.80;;
46767;SDS011;69007;48.978;18.066;2024-01-07T06:01:50;3.80;;;2.00;;
46767;SDS011;69007;48.978;18.066;2024-01-07T06:04:15;2.85;;;2.00;;
46767;SDS011;69007;48.978;18.066;2024-01-07T06:06:40;3.17;;;1.98;;
46767;SDS011;69007;48.978;18.066;2024-01-07T06:09:06;3.00;;;2.10;;
46767;SDS011;69007;48.978;18.066;2024-01-07T06:11:32;2.60;;;2.00;;
46767;SDS011;69007;48.978;18.066;2024-01-07T06:13:57;3.53;;;2.45;;
46767;SDS011;69007;48.978;18.066;2024-01-07T06:16:22;3.38;;;2.13;;
46767;SDS011;69007;48.978;18.066;2024-01-07T06:18:48;3.53;;;2.20;;
46767;SDS011;69007;48.978;18.066;2024-01-07T06:21:14;3.22;;;2.47;;
46767;SDS011;69007;48.978;18.066;2024-01-07T06:23:39;2.15;;;1.70;;
46767;SDS011;69007;48.978;18.066;2024-01-07T06:26:05;6.55;;;3.55;;
46767;SDS011;69007;48.978;18.066;2024-01-07T06:28:31;3.47;;;2.10;;
46767;SDS011;69007;48.978;18.066;2024-01-07T06:30:58;2.60;;;2.35;;
46767;SDS011;69007;48.978;18.066;2024-01-07T06:33:23;3.53;;;2.15;;
46767;SDS011;69007;48.978;18.066;2024-01-07T06:35:49;2.28;;;2.08;;
46767;SDS011;69007;48.978;18.066;2024-01-07T06:38:14;3.20;;;2.05;;
46767;SDS011;69007;48.978;18.066;2024-01-07T06:40:40;3.85;;;2.60;;
46767;SDS011;69007;48.978;18.066;2024-01-07T06:43:05;3.75;;;2.90;;
46767;SDS011;69007;48.978;18.066;2024-01-07T06:45:31;2.60;;;2.20;;
46767;SDS011;69007;48.978;18.066;2024-01-07T06:47:57;3.65;;;2.67;;
46767;SDS011;69007;48.978;18.066;2024-01-07T06:50:23;3.45;;;2.30;;
46767;SDS011;69007;48.978;18.066;2024-01-07T06:52:48;3.22;;;2.33;;
46767;SDS011;69007;48.978;18.066;2024-01-07T06:55:14;4.93;;;2.70;;
46767;SDS011;69007;48.978;18.066;2024-01-07T06:57:40;4.22;;;2.65;;
46767;SDS011;69007;48.978;18.066;2024-01-07T07:00:05;4.63;;;2.97;;
46767;SDS011;69007;48.978;18.066;2024-01-07T07:02:31;2.75;;;2.00;;
46767;SDS011;69007;48.978;18.066;2024-01-07T07:04:56;3.88;;;2.40;;
46767;SDS011;69007;48.978;18.066;2024-01-07T07:07:22;2.72;;;2.40;;
46767;SDS011;69007;48.978;18.066;2024-01-07T07:09:47;2.53;;;1.58;;
46767;SDS011;69007;48.978;18.066;2024-01-07T07:12:13;3.00;;;2.15;;
46767;SDS011;69007;48.978;18.066;2024-01-07T07:14:38;6.65;;;2.88;;
46767;SDS011;69007;48.978;18.066;2024-01-07T07:17:03;2.53;;;2.33;;
46767;SDS011;69007;48.978;18.066;2024-01-07T07:19:29;4.00;;;2.72;;
46767;SDS011;69007;48.978;18.066;2024-01-07T07:21:54;4.80;;;2.92;;
46767;SDS011;69007;48.978;18.066;2024-01-07T07:24:19;3.60;;;2.38;;
46767;SDS011;69007;48.978;18.066;2024-01-07T07:26:45;3.70;;;2.25;;
46767;SDS011;69007;48.978;18.066;2024-01-07T07:29:10;5.75;;;2.33;;
46767;SDS011;69007;48.978;18.066;2024-01-07T07:31:36;5.53;;;2.50;;
46767;SDS011;69007;48.978;18.066;2024-01-07T07:34:05;3.70;;;2.45;;
46767;SDS011;69007;48.978;18.066;2024-01-07T07:36:31;3.85;;;2.67;;
46767;SDS011;69007;48.978;18.066;2024-01-07T07:38:57;4.07;;;2.83;;
46767;SDS011;69007;48.978;18.066;2024-01-07T07:41:22;4.07;;;2.95;;
46767;SDS011;69007;48.978;18.066;2024-01-07T07:43:47;4.03;;;2.33;;
46767;SDS011;69007;48.978;18.066;2024-01-07T07:46:13;3.35;;;2.55;;
46767;SDS011;69007;48.978;18.066;2024-01-07T07:48:38;3.78;;;2.63;;
46767;SDS011;69007;48.978;18.066;2024-01-07T07:51:04;4.35;;;2.53;;
46767;SDS011;69007;48.978;18.066;2024-01-07T07:53:30;3.53;;;2.88;;
46767;SDS011;69007;48.978;18.066;2024-01-07T07:55:55;4.95;;;3.17;;
46767;SDS011;69007;48.978;18.066;2024-01-07T07:58:21;3.95;;;2.30;;
46767;SDS011;69007;48.978;18.066;2024-01-07T08:00:46;4.60;;;2.63;;
46767;SDS011;69007;48.978;18.066;2024-01-07T08:03:12;3.80;;;2.50;;
46767;SDS011;69007;48.978;18.066;2024-01-07T08:05:38;3.95;;;2.92;;
46767;SDS011;69007;48.978;18.066;2024-01-07T08:08:05;5.50;;;3.05;;
46767;SDS011;69007;48.978;18.066;2024-01-07T08:10:31;4.05;;;2.58;;
46767;SDS011;69007;48.978;18.066;2024-01-07T08:12:57;4.60;;;2.70;;
46767;SDS011;69007;48.978;18.066;2024-01-07T08:15:23;3.50;;;2.45;;
46767;SDS011;69007;48.978;18.066;2024-01-07T08:17:48;4.40;;;2.97;;
46767;SDS011;69007;48.978;18.066;2024-01-07T08:20:15;4.15;;;2.83;;
46767;SDS011;69007;48.978;18.066;2024-01-07T08:22:40;3.25;;;2.20;;
46767;SDS011;69007;48.978;18.066;2024-01-07T08:25:05;5.13;;;2.60;;
46767;SDS011;69007;48.978;18.066;2024-01-07T08:27:31;4.30;;;2.53;;
46767;SDS011;69007;48.978;18.066;2024-01-07T08:29:57;3.95;;;2.80;;
46767;SDS011;69007;48.978;18.066;2024-01-07T08:32:23;6.47;;;3.15;;
46767;SDS011;69007;48.978;18.066;2024-01-07T08:34:48;3.53;;;2.60;;
46767;SDS011;69007;48.978;18.066;2024-01-07T08:37:14;4.45;;;2.40;;
46767;SDS011;69007;48.978;18.066;2024-01-07T08:39:39;4.07;;;2.90;;
46767;SDS011;69007;48.978;18.066;2024-01-07T08:42:05;5.72;;;2.92;;
46767;SDS011;69007;48.978;18.066;2024-01-07T08:44:30;5.60;;;3.30;;
46767;SDS011;69007;48.978;18.066;2024-01-07T08:46:56;3.55;;;2.17;;
46767;SDS011;69007;48.978;18.066;2024-01-07T08:49:21;3.83;;;2.85;;
46767;SDS011;69007;48.978;18.066;2024-01-07T08:51:47;4.05;;;2.20;;
46767;SDS011;69007;48.978;18.066;2024-01-07T08:54:12;3.92;;;2.75;;
46767;SDS011;69007;48.978;18.066;2024-01-07T08:56:37;4.97;;;3.80;;
46767;SDS011;69007;48.978;18.066;2024-01-07T08:59:04;4.63;;;2.88;;
46767;SDS011;69007;48.978;18.066;2024-01-07T09:01:30;3.58;;;2.40;;
46767;SDS011;69007;48.978;18.066;2024-01-07T09:03:55;4.72;;;3.08;;
46767;SDS011;69007;48.978;18.066;2024-01-07T09:06:21;4.05;;;3.03;;
46767;SDS011;69007;48.978;18.066;2024-01-07T09:08:46;4.07;;;2.70;;
46767;SDS011;69007;48.978;18.066;2024-01-07T09:11:11;3.88;;;2.50;;
46767;SDS011;69007;48.978;18.066;2024-01-07T09:13:38;2.97;;;2.45;;
46767;SDS011;69007;48.978;18.066;2024-01-07T09:16:04;4.45;;;2.85;;
46767;SDS011;69007;48.978;18.066;2024-01-07T09:18:29;3.63;;;2.47;;
46767;SDS011;69007;48.978;18.066;2024-01-07T09:20:55;4.65;;;2.67;;
46767;SDS011;69007;48.978;18.066;2024-01-07T09:23:21;3.17;;;2.53;;
46767;SDS011;69007;48.978;18.066;2024-01-07T09:25:47;3.33;;;2.55;;
46767;SDS011;69007;48.978;18.066;2024-01-07T09:28:12;3.47;;;2.30;;
46767;SDS011;69007;48.978;18.066;2024-01-07T09:30:38;7.07;;;3.55;;
46767;SDS011;69007;48.978;18.066;2024-01-07T09:33:03;3.95;;;2.33;;
46767;SDS011;69007;48.978;18.066;2024-01-07T09:35:29;3.90;;;2.63;;
46767;SDS011;69007;48.978;18.066;2024-01-07T09:37:54;3.85;;;2.40;;
46767;SDS011;69007;48.978;18.066;2024-01-07T09:40:19;5.07;;;3.03;;
46767;SDS011;69007;48.978;18.066;2024-01-07T09:42:45;4.22;;;2.80;;
46767;SDS011;69007;48.978;18.066;2024-01-07T09:45:12;3.50;;;2.88;;
46767;SDS011;69007;48.978;18.066;2024-01-07T09:47:39;4.88;;;2.97;;
46767;SDS011;69007;48.978;18.066;2024-01-07T09:50:06;5.10;;;3.17;;
46767;SDS011;69007;48.978;18.066;2024-01-07T09:52:32;5.13;;;3.00;;
46767;SDS011;69007;48.978;18.066;2024-01-07T09:55:02;3.50;;;2.33;;
46767;SDS011;69007;48.978;18.066;2024-01-07T09:57:31;3.28;;;2.22;;
46767;SDS011;69007;48.978;18.066;2024-01-07T09:59:57;3.67;;;3.08;;
46767;SDS011;69007;48.978;18.066;2024-01-07T10:02:24;3.13;;;2.38;;
46767;SDS011;69007;48.978;18.066;2024-01-07T10:04:50;4.40;;;3.05;;
46767;SDS011;69007;48.978;18.066;2024-01-07T10:07:15;2.72;;;2.40;;
46767;SDS011;69007;48.978;18.066;2024-01-07T10:09:42;4.82;;;2.63;;
46767;SDS011;69007;48.978;18.066;2024-01-07T10:12:08;3.58;;;2.78;;
46767;SDS011;69007;48.978;18.066;2024-01-07T10:14:34;3.88;;;2.25;;
46767;SDS011;69007;48.978;18.066;2024-01-07T10:17:00;4.93;;;2.97;;
46767;SDS011;69007;48.978;18.066;2024-01-07T10:19:25;3.75;;;2.80;;
46767;SDS011;69007;48.978;18.066;2024-01-07T10:22:00;3.67;;;2.20;;
46767;SDS011;69007;48.978;18.066;2024-01-07T10:24:26;4.28;;;2.70;;
46767;SDS011;69007;48.978;18.066;2024-01-07T10:26:51;3.38;;;2.53;;
46767;SDS011;69007;48.978;18.066;2024-01-07T10:29:17;9.00;;;3.75;;
46767;SDS011;69007;48.978;18.066;2024-01-07T10:31:43;5.75;;;3.17;;
46767;SDS011;69007;48.978;18.066;2024-01-07T10:34:11;5.68;;;3.13;;
46767;SDS011;69007;48.978;18.066;2024-01-07T10:36:38;5.40;;;3.03;;
46767;SDS011;69007;48.978;18.066;2024-01-07T10:39:05;3.75;;;2.80;;
46767;SDS011;69007;48.978;18.066;2024-01-07T10:41:30;5.00;;;2.83;;
46767;SDS011;69007;48.978;18.066;2024-01-07T10:43:56;6.00;;;3.30;;
46767;SDS011;69007;48.978;18.066;2024-01-07T10:46:23;5.55;;;3.22;;
46767;SDS011;69007;48.978;18.066;2024-01-07T10:48:55;3.63;;;2.83;;
46767;SDS011;69007;48.978;18.066;2024-01-07T10:51:25;3.83;;;2.97;;
46767;SDS011;69007;48.978;18.066;2024-01-07T10:53:53;4.05;;;2.72;;
46767;SDS011;69007;48.978;18.066;2024-01-07T10:56:22;5.78;;;2.90;;
46767;SDS011;69007;48.978;18.066;2024-01-07T10:58:51;3.88;;;2.95;;
46767;SDS011;69007;48.978;18.066;2024-01-07T11:01:18;4.70;;;3.22;;
46767;SDS011;69007;48.978;18.066;2024-01-07T11:03:51;3.67;;;2.70;;
46767;SDS011;69007;48.978;18.066;2024-01-07T11:10:04;4.25;;;3.15;;
46767;SDS011;69007;48.978;18.066;2024-01-07T11:12:43;5.72;;;3.15;;
46767;SDS011;69007;48.978;18.066;2024-01-07T11:15:08;4.25;;;3.10;;
46767;SDS011;69007;48.978;18.066;2024-01-07T11:20:04;4.50;;;3.00;;
46767;SDS011;69007;48.978;18.066;2024-01-07T11:22:30;6.68;;;3.00;;
46767;SDS011;69007;48.978;18.066;2024-01-07T11:24:57;4.75;;;2.90;;
46767;SDS011;69007;48.978;18.066;2024-01-07T11:27:29;5.78;;;3.22;;
46767;SDS011;69007;48.978;18.066;2024-01-07T11:32:59;3.80;;;2.63;;
46767;SDS011;69007;48.978;18.066;2024-01-07T11:38:19;4.82;;;3.42;;
46767;SDS011;69007;48.978;18.066;2024-01-07T11:40:44;4.30;;;3.40;;
46767;SDS011;69007;48.978;18.066;2024-01-07T11:43:12;5.30;;;3.90;;
46767;SDS011;69007;48.978;18.066;2024-01-07T11:45:37;4.22;;;3.20;;
46767;SDS011;69007;48.978;18.066;2024-01-07T11:48:04;6.90;;;3.45;;
46767;SDS011;69007;48.978;18.066;2024-01-07T11:50:30;8.23;;;4.22;;
46767;SDS011;69007;48.978;18.066;2024-01-07T11:52:55;5.97;;;3.47;;
46767;SDS011;69007;48.978;18.066;2024-01-07T11:55:21;7.22;;;4.13;;
46767;SDS011;69007;48.978;18.066;2024-01-07T11:57:47;4.45;;;2.85;;
46767;SDS011;69007;48.978;18.066;2024-01-07T12:00:13;5.20;;;2.80;;
46767;SDS011;69007;48.978;18.066;2024-01-07T12:02:38;6.07;;;3.60;;
46767;SDS011;69007;48.978;18.066;2024-01-07T12:05:04;4.32;;;2.97;;
46767;SDS011;69007;48.978;18.066;2024-01-07T12:07:29;5.53;;;4.05;;
46767;SDS011;69007;48.978;18.066;2024-01-07T12:09:56;6.38;;;3.80;;
46767;SDS011;69007;48.978;18.066;2024-01-07T12:12:23;7.30;;;3.90;;
46767;SDS011;69007;48.978;18.066;2024-01-07T12:14:48;5.63;;;3.55;;
46767;SDS011;69007;48.978;18.066;2024-01-07T12:17:16;6.90;;;3.53;;
46767;SDS011;69007;48.978;18.066;2024-01-07T12:19:42;4.30;;;3.40;;
46767;SDS011;69007;48.978;18.066;2024-01-07T12:22:08;6.25;;;4.07;;
46767;SDS011;69007;48.978;18.066;2024-01-07T12:24:34;8.02;;;3.97;;
46767;SDS011;69007;48.978;18.066;2024-01-07T12:27:03;6.55;;;3.50;;
46767;SDS011;69007;48.978;18.066;2024-01-07T12:29:30;7.28;;;3.70;;
46767;SDS011;69007;48.978;18.066;2024-01-07T12:31:55;6.95;;;3.92;;
46767;SDS011;69007;48.978;18.066;2024-01-07T12:34:21;7.75;;;4.40;;
46767;SDS011;69007;48.978;18.066;2024-01-07T12:36:48;9.75;;;4.78;;
46767;SDS011;69007;48.978;18.066;2024-01-07T12:39:14;5.68;;;3.70;;
46767;SDS011;69007;48.978;18.066;2024-01-07T12:41:39;4.45;;;2.80;;
46767;SDS011;69007;48.978;18.066;2024-01-07T12:44:04;6.10;;;3.08;;
46767;SDS011;69007;48.978;18.066;2024-01-07T12:46:30;5.10;;;3.67;;
46767;SDS011;69007;48.978;18.066;2024-01-07T12:48:56;8.02;;;4.18;;
46767;SDS011;69007;48.978;18.066;2024-01-07T12:51:22;7.22;;;4.00;;
46767;SDS011;69007;48.978;18.066;2024-01-07T12:53:47;6.60;;;3.85;;
46767;SDS011;69007;48.978;18.066;2024-01-07T12:56:12;9.57;;;4.38;;
46767;SDS011;69007;48.978;18.066;2024-01-07T12:58:38;5.63;;;3.30;;
46767;SDS011;69007;48.978;18.066;2024-01-07T13:01:03;8.70;;;3.78;;
46767;SDS011;69007;48.978;18.066;2024-01-07T13:03:29;9.85;;;4.38;;
46767;SDS011;69007;48.978;18.066;2024-01-07T13:05:55;8.05;;;4.82;;
46767;SDS011;69007;48.978;18.066;2024-01-07T13:08:20;6.95;;;3.80;;
46767;SDS011;69007;48.978;18.066;2024-01-07T13:10:50;6.70;;;3.70;;
46767;SDS011;69007;48.978;18.066;2024-01-07T13:13:17;6.72;;;4.20;;
46767;SDS011;69007;48.978;18.066;2024-01-07T13:15:42;5.18;;;3.65;;
46767;SDS011;69007;48.978;18.066;2024-01-07T13:18:08;7.07;;;3.90;;
46767;SDS011;69007;48.978;18.066;2024-01-07T13:20:36;7.90;;;4.07;;
46767;SDS011;69007;48.978;18.066;2024-01-07T13:23:04;6.82;;;3.97;;
46767;SDS011;69007;48.978;18.066;2024-01-07T13:25:30;11.30;;;4.63;;
46767;SDS011;69007;48.978;18.066;2024-01-07T13:27:55;6.63;;;4.18;;
46767;SDS011;69007;48.978;18.066;2024-01-07T13:30:21;8.02;;;4.53;;
46767;SDS011;69007;48.978;18.066;2024-01-07T13:32:46;8.88;;;4.35;;
46767;SDS011;69007;48.978;18.066;2024-01-07T13:35:11;9.43;;;4.80;;
46767;SDS011;69007;48.978;18.066;2024-01-07T13:37:38;8.20;;;4.78;;
46767;SDS011;69007;48.978;18.066;2024-01-07T13:40:07;7.60;;;3.92;;
46767;SDS011;69007;48.978;18.066;2024-01-07T13:42:35;9.77;;;4.88;;
46767;SDS011;69007;48.978;18.066;2024-01-07T13:45:01;7.25;;;4.85;;
46767;SDS011;69007;48.978;18.066;2024-01-07T13:47:27;12.50;;;6.32;;
46767;SDS011;69007;48.978;18.066;2024-01-07T13:49:53;8.20;;;4.55;;
46767;SDS011;69007;48.978;18.066;2024-01-07T13:52:18;11.73;;;4.82;;
46767;SDS011;69007;48.978;18.066;2024-01-07T13:54:44;10.88;;;5.57;;
46767;SDS011;69007;48.978;18.066;2024-01-07T13:57:09;9.30;;;5.15;;
46767;SDS011;69007;48.978;18.066;2024-01-07T13:59:35;8.95;;;5.00;;
46767;SDS011;69007;48.978;18.066;2024-01-07T14:02:00;13.98;;;5.60;;
46767;SDS011;69007;48.978;18.066;2024-01-07T14:04:27;11.43;;;5.82;;
46767;SDS011;69007;48.978;18.066;2024-01-07T14:06:53;14.25;;;6.82;;
46767;SDS011;69007;48.978;18.066;2024-01-07T14:09:20;12.00;;;5.28;;
46767;SDS011;69007;48.978;18.066;2024-01-07T14:11:45;10.18;;;5.53;;
46767;SDS011;69007;48.978;18.066;2024-01-07T14:14:10;11.63;;;5.32;;
46767;SDS011;69007;48.978;18.066;2024-01-07T14:16:36;7.80;;;4.93;;
46767;SDS011;69007;48.978;18.066;2024-01-07T14:19:02;8.18;;;5.60;;
46767;SDS011;69007;48.978;18.066;2024-01-07T14:21:28;7.80;;;4.28;;
46767;SDS011;69007;48.978;18.066;2024-01-07T14:23:55;11.15;;;5.15;;
46767;SDS011;69007;48.978;18.066;2024-01-07T14:26:20;8.25;;;5.10;;
46767;SDS011;69007;48.978;18.066;2024-01-07T14:28:48;7.35;;;4.88;;
46767;SDS011;69007;48.978;18.066;2024-01-07T14:31:14;9.25;;;5.28;;
46767;SDS011;69007;48.978;18.066;2024-01-07T14:33:40;10.80;;;5.38;;
46767;SDS011;69007;48.978;18.066;2024-01-07T14:36:06;8.57;;;4.90;;
46767;SDS011;69007;48.978;18.066;2024-01-07T14:38:31;8.07;;;4.78;;